Time;durP1;ratioP1;P1;durP2;ratioP2;P2;SDS_P1;SDS_P2;PMS_P1;PMS_P2;Temp;Humidity;BMP_temperature;BMP_pressure;BME280_temperature;BME280_humidity;BME280_pressure;Samples;Min_cycle;Max_cycle;Signal;HPM_P1;HPM_P2
2023/03/03 00:01:14;;;;;;;59.77;38.20;;;0.90;99.90;;;;;;5059633;28;21048;-72
2023/03/03 00:03:41;;;;;;;62.60;38.30;;;0.90;99.90;;;;;;5062570;28;20891;-71
2023/03/03 00:06:10;;;;;;;60.00;39.03;;;0.80;99.90;;;;;;5063718;28;20545;-71
2023/03/03 00:08:39;;;;;;;65.13;38.80;;;0.80;99.90;;;;;;5058772;28;20475;-72
2023/03/03 00:11:06;;;;;;;74.03;42.40;;;0.80;99.90;;;;;;5057951;28;20527;-70
2023/03/03 00:13:43;;;;;;;68.13;41.73;;;0.80;99.90;;;;;;5059494;28;20471;-71
2023/03/03 00:16:22;;;;;;;74.27;41.13;;;0.80;99.90;;;;;;5059023;28;20873;-72
2023/03/03 00:18:49;;;;;;;71.70;43.10;;;0.80;99.90;;;;;;5060552;28;20544;-70
2023/03/03 00:21:24;;;;;;;76.17;42.50;;;0.60;99.90;;;;;;5051726;28;20529;-71
2023/03/03 00:23:53;;;;;;;70.17;41.90;;;0.60;99.90;;;;;;5057735;28;20932;-71
2023/03/03 00:26:22;;;;;;;70.53;40.83;;;0.60;99.90;;;;;;5056322;28;20879;-70
2023/03/03 00:28:51;;;;;;;64.50;40.23;;;0.60;99.90;;;;;;5054836;28;20461;-70
2023/03/03 00:31:20;;;;;;;61.53;40.93;;;0.50;99.90;;;;;;5052926;28;21024;-70
2023/03/03 00:33:53;;;;;;;65.63;41.90;;;0.50;99.90;;;;;;5059083;28;20467;-71
2023/03/03 00:36:33;;;;;;;72.67;41.67;;;0.50;99.90;;;;;;5065172;28;20808;-71
2023/03/03 00:39:17;;;;;;;70.97;42.17;;;0.50;99.90;;;;;;5053547;28;20478;-73
2023/03/03 00:41:44;;;;;;;68.30;42.43;;;0.50;99.90;;;;;;5058949;28;20529;-71
2023/03/03 00:44:38;;;;;;;70.33;40.03;;;0.50;99.90;;;;;;5057168;28;20466;-71
2023/03/03 00:47:25;;;;;;;79.33;42.67;;;0.60;99.90;;;;;;5053908;28;20558;-73
2023/03/03 00:49:52;;;;;;;71.90;40.60;;;0.60;99.90;;;;;;5057152;28;20459;-72
2023/03/03 00:52:20;;;;;;;65.43;38.07;;;0.70;99.90;;;;;;5061141;28;20709;-72
2023/03/03 00:54:49;;;;;;;67.93;40.33;;;0.70;99.90;;;;;;5054244;28;20455;-73
2023/03/03 00:57:16;;;;;;;78.83;43.63;;;0.80;99.90;;;;;;5054304;28;20494;-71
2023/03/03 00:59:42;;;;;;;78.50;39.47;;;0.80;99.90;;;;;;5058152;28;21012;-71
2023/03/03 01:02:09;;;;;;;83.27;42.97;;;0.90;99.90;;;;;;5058958;28;20495;-73
2023/03/03 01:04:37;;;;;;;75.63;42.07;;;1.00;99.90;;;;;;5060977;28;20466;-72
2023/03/03 01:07:04;;;;;;;93.67;43.13;;;1.00;99.90;;;;;;5053749;28;20468;-72
2023/03/03 01:09:30;;;;;;;96.17;43.60;;;0.90;99.90;;;;;;5054291;28;21313;-72
2023/03/03 01:11:59;;;;;;;115.53;47.67;;;0.90;99.90;;;;;;5048011;28;20524;-71
2023/03/03 01:14:27;;;;;;;95.13;46.43;;;1.00;99.90;;;;;;5056308;28;20554;-73
2023/03/03 01:16:54;;;;;;;99.93;46.37;;;1.00;99.90;;;;;;5058765;28;21072;-71
2023/03/03 01:19:21;;;;;;;89.43;47.27;;;1.00;99.90;;;;;;5055171;28;20467;-71
2023/03/03 01:21:48;;;;;;;88.97;44.37;;;1.10;99.90;;;;;;5056125;28;20541;-69
2023/03/03 01:24:15;;;;;;;104.43;50.27;;;1.20;99.90;;;;;;5053583;28;20497;-71
2023/03/03 01:26:41;;;;;;;111.70;50.17;;;1.20;99.90;;;;;;5046937;28;20856;-71
2023/03/03 01:29:10;;;;;;;119.60;55.40;;;1.20;99.90;;;;;;5061362;28;20522;-70
2023/03/03 01:31:37;;;;;;;107.47;51.10;;;1.30;99.90;;;;;;5062999;28;20485;-69
2023/03/03 01:34:04;;;;;;;119.00;53.00;;;1.30;99.90;;;;;;5054216;28;20467;-69
2023/03/03 01:36:31;;;;;;;121.73;55.27;;;1.40;99.90;;;;;;5054416;28;20460;-69
2023/03/03 01:38:58;;;;;;;124.97;54.50;;;1.40;99.90;;;;;;5055255;28;20868;-70
2023/03/03 01:41:29;;;;;;;122.47;54.03;;;1.30;99.90;;;;;;5054396;28;20495;-71
2023/03/03 01:43:56;;;;;;;119.50;56.03;;;1.30;99.90;;;;;;5051912;28;20455;-71
2023/03/03 01:46:40;;;;;;;108.33;51.10;;;1.40;99.90;;;;;;5057860;28;20520;-72
2023/03/03 01:49:13;;;;;;;110.30;47.87;;;1.50;99.90;;;;;;5058425;28;20463;-71
2023/03/03 01:51:47;;;;;;;125.23;53.27;;;1.40;99.90;;;;;;5056423;28;21087;-71
2023/03/03 01:54:20;;;;;;;142.53;55.83;;;1.30;99.90;;;;;;5053951;28;20459;-72
2023/03/03 01:56:48;;;;;;;132.93;50.60;;;1.40;99.90;;;;;;5057052;28;21042;-72
2023/03/03 01:59:19;;;;;;;124.63;51.03;;;1.40;99.90;;;;;;5059312;28;20467;-72
2023/03/03 02:01:48;;;;;;;125.00;53.40;;;1.40;99.90;;;;;;5061808;28;20885;-71
2023/03/03 02:04:15;;;;;;;108.00;46.47;;;1.40;99.90;;;;;;5058111;28;20814;-71
2023/03/03 02:06:47;;;;;;;134.63;55.77;;;1.30;99.90;;;;;;5053003;28;20470;-71
2023/03/03 02:09:18;;;;;;;135.57;53.07;;;1.40;99.90;;;;;;5053608;28;20745;-73
2023/03/03 02:11:46;;;;;;;130.67;54.97;;;1.50;99.90;;;;;;5051330;28;20464;-73
2023/03/03 02:14:13;;;;;;;134.03;57.43;;;1.60;99.90;;;;;;5056932;28;20886;-73
2023/03/03 02:16:41;;;;;;;126.63;53.80;;;1.50;99.90;;;;;;5060518;28;20486;-74
2023/03/03 02:19:17;;;;;;;130.53;52.43;;;1.60;99.90;;;;;;5051996;28;20471;-74
2023/03/03 02:21:44;;;;;;;120.50;50.07;;;1.60;99.90;;;;;;5049519;28;20502;-73
2023/03/03 02:24:16;;;;;;;137.80;55.60;;;1.60;99.90;;;;;;5052729;28;20458;-73
2023/03/03 02:26:46;;;;;;;112.97;44.73;;;1.60;99.90;;;;;;5055168;28;20493;-70
2023/03/03 02:29:13;;;;;;;137.07;55.03;;;1.60;99.90;;;;;;5052244;28;20467;-71
2023/03/03 02:31:40;;;;;;;127.30;49.90;;;1.70;99.90;;;;;;5050094;28;20472;-70
2023/03/03 02:34:06;;;;;;;132.37;51.20;;;1.60;99.90;;;;;;5053256;28;20455;-70
2023/03/03 02:36:36;;;;;;;128.23;53.27;;;1.60;99.90;;;;;;5053209;28;20511;-72
2023/03/03 02:39:07;;;;;;;149.70;54.70;;;1.50;99.90;;;;;;5054350;28;20588;-70
2023/03/03 02:41:38;;;;;;;110.03;45.87;;;1.60;99.90;;;;;;5051501;28;20814;-71
2023/03/03 02:44:08;;;;;;;129.90;51.90;;;1.60;99.90;;;;;;5046832;28;20856;-72
2023/03/03 02:46:36;;;;;;;132.60;51.40;;;1.50;99.90;;;;;;5051265;28;20994;-71
2023/03/03 02:49:04;;;;;;;134.43;49.37;;;1.50;99.90;;;;;;5052837;28;20797;-70
2023/03/03 02:51:31;;;;;;;138.10;54.30;;;1.60;99.90;;;;;;5053929;28;20455;-72
2023/03/03 02:53:58;;;;;;;140.50;54.40;;;1.60;99.90;;;;;;5049743;28;20469;-70
2023/03/03 02:56:25;;;;;;;101.83;43.27;;;1.60;99.90;;;;;;5048950;28;20471;-72
2023/03/03 02:58:52;;;;;;;122.87;55.57;;;1.60;99.90;;;;;;5056929;28;20463;-70
2023/03/03 03:01:20;;;;;;;146.87;55.33;;;1.60;99.90;;;;;;5057054;28;20488;-72
2023/03/03 03:03:47;;;;;;;135.50;54.80;;;1.60;99.90;;;;;;5051975;28;20549;-72
2023/03/03 03:06:14;;;;;;;131.63;52.87;;;1.60;99.90;;;;;;5056104;28;20472;-70
2023/03/03 03:08:41;;;;;;;126.30;53.97;;;1.70;99.90;;;;;;5057473;28;20475;-72
2023/03/03 03:11:08;;;;;;;121.90;51.73;;;1.60;99.90;;;;;;5049847;28;20470;-71
2023/03/03 03:13:35;;;;;;;111.73;46.13;;;1.70;99.90;;;;;;5054060;28;20471;-72
2023/03/03 03:16:02;;;;;;;135.17;53.50;;;1.60;99.90;;;;;;5054518;28;20513;-68
2023/03/03 03:18:31;;;;;;;124.10;52.10;;;1.60;99.90;;;;;;5051107;28;20460;-72
2023/03/03 03:21:05;;;;;;;119.20;54.70;;;1.60;99.90;;;;;;5058058;28;20464;-72
2023/03/03 03:23:31;;;;;;;110.97;51.33;;;1.50;99.90;;;;;;5057668;28;20470;-69
2023/03/03 03:25:59;;;;;;;104.00;45.37;;;1.40;99.90;;;;;;5059354;28;21023;-71
2023/03/03 03:28:26;;;;;;;114.27;48.00;;;1.50;99.90;;;;;;5052965;28;20471;-71
2023/03/03 03:30:53;;;;;;;112.10;47.37;;;1.50;99.90;;;;;;5059748;28;20762;-69
2023/03/03 03:33:20;;;;;;;120.87;50.30;;;1.60;99.90;;;;;;5056671;28;20599;-70
2023/03/03 03:35:49;;;;;;;114.93;51.50;;;1.70;99.90;;;;;;5055121;28;20548;-70
2023/03/03 03:38:17;;;;;;;120.67;53.13;;;1.80;99.90;;;;;;5056748;28;20885;-72
2023/03/03 03:40:44;;;;;;;91.90;43.27;;;1.90;99.90;;;;;;5062929;28;20949;-70
2023/03/03 03:43:11;;;;;;;110.60;50.83;;;1.80;99.90;;;;;;5055544;28;20499;-70
2023/03/03 03:45:38;;;;;;;109.63;48.53;;;1.70;99.90;;;;;;5055823;28;20875;-72
2023/03/03 03:48:06;;;;;;;112.73;47.20;;;1.70;99.90;;;;;;5051719;28;20463;-71
2023/03/03 03:50:33;;;;;;;96.73;44.10;;;1.60;99.90;;;;;;5055375;28;20498;-70
2023/03/03 03:53:01;;;;;;;100.50;46.33;;;1.70;99.90;;;;;;5056911;28;20467;-70
2023/03/03 03:55:28;;;;;;;111.70;48.10;;;1.70;99.90;;;;;;5053629;28;20953;-72
2023/03/03 03:57:56;;;;;;;99.87;47.20;;;1.80;99.90;;;;;;5061936;28;20965;-71
2023/03/03 04:00:24;;;;;;;100.77;48.60;;;1.80;99.90;;;;;;5058838;28;20488;-72
2023/03/03 04:02:52;;;;;;;112.33;50.00;;;1.80;99.90;;;;;;5053105;28;21059;-72
2023/03/03 04:05:19;;;;;;;94.53;43.90;;;1.80;99.90;;;;;;5051917;28;20466;-71
2023/03/03 04:07:45;;;;;;;102.20;46.93;;;1.70;99.90;;;;;;5052571;28;20883;-71
2023/03/03 04:10:13;;;;;;;118.30;50.10;;;1.60;99.90;;;;;;5053903;28;20558;-72
2023/03/03 04:12:41;;;;;;;95.97;41.80;;;1.70;99.90;;;;;;5052542;28;20464;-72
2023/03/03 04:15:11;;;;;;;116.20;47.43;;;1.60;99.90;;;;;;5054543;28;20478;-70
2023/03/03 04:17:38;;;;;;;115.17;45.73;;;1.50;99.90;;;;;;5056526;28;20469;-70
2023/03/03 04:20:07;;;;;;;95.83;45.70;;;1.50;99.90;;;;;;5055936;28;20840;-69
2023/03/03 04:22:34;;;;;;;103.77;46.70;;;1.40;99.90;;;;;;5049498;28;20583;-71
2023/03/03 04:25:03;;;;;;;109.73;46.50;;;1.50;99.90;;;;;;5057880;28;20463;-72
2023/03/03 04:27:32;;;;;;;111.13;49.97;;;1.50;99.90;;;;;;5054820;28;20459;-70
2023/03/03 04:29:59;;;;;;;96.40;42.87;;;1.50;99.90;;;;;;5051272;28;20475;-70
2023/03/03 04:32:26;;;;;;;105.53;48.47;;;1.50;99.90;;;;;;5053059;28;20485;-71
2023/03/03 04:34:52;;;;;;;108.23;47.90;;;1.50;99.90;;;;;;5056566;28;20468;-71
2023/03/03 04:37:20;;;;;;;118.23;46.40;;;1.50;99.90;;;;;;5057371;28;20478;-72
2023/03/03 04:39:46;;;;;;;106.90;48.10;;;1.60;99.90;;;;;;5056724;28;20463;-72
2023/03/03 04:42:14;;;;;;;100.93;47.60;;;1.70;99.90;;;;;;5058179;28;20502;-69
2023/03/03 04:44:42;;;;;;;106.90;46.53;;;1.60;99.90;;;;;;5058480;28;20604;-69
2023/03/03 04:47:09;;;;;;;106.33;45.00;;;1.60;99.90;;;;;;5061830;28;20767;-71
2023/03/03 04:49:36;;;;;;;96.37;43.17;;;1.70;99.90;;;;;;5052575;28;20538;-72
2023/03/03 04:52:03;;;;;;;106.47;46.70;;;1.70;99.90;;;;;;5062083;28;21023;-71
2023/03/03 04:54:30;;;;;;;106.43;49.93;;;1.60;99.90;;;;;;5056183;28;20459;-70
2023/03/03 04:56:58;;;;;;;119.63;50.00;;;1.50;99.90;;;;;;5060559;28;20463;-72
2023/03/03 04:59:25;;;;;;;119.17;50.20;;;1.50;99.90;;;;;;5055191;28;20554;-72
2023/03/03 05:01:53;;;;;;;125.60;51.90;;;1.50;99.90;;;;;;5053249;28;20495;-70
2023/03/03 05:04:20;;;;;;;109.50;47.33;;;1.40;99.90;;;;;;5058173;28;20475;-70
2023/03/03 05:06:47;;;;;;;94.97;44.63;;;1.40;99.90;;;;;;5059342;28;20513;-72
2023/03/03 05:09:14;;;;;;;117.17;53.87;;;1.40;99.90;;;;;;5057669;28;20849;-71
2023/03/03 05:11:41;;;;;;;110.70;49.10;;;1.40;99.90;;;;;;5056493;28;20538;-71
2023/03/03 05:14:08;;;;;;;126.40;48.97;;;1.30;99.90;;;;;;5059536;28;20464;-70
2023/03/03 05:16:35;;;;;;;123.67;49.87;;;1.30;99.90;;;;;;5053100;28;20481;-69
2023/03/03 05:19:03;;;;;;;128.93;51.00;;;1.30;99.90;;;;;;5052711;28;20820;-70
2023/03/03 05:21:30;;;;;;;112.70;49.57;;;1.20;99.90;;;;;;5059591;28;20546;-71
2023/03/03 05:23:57;;;;;;;122.93;51.00;;;1.40;99.90;;;;;;5062371;28;20452;-70
2023/03/03 05:26:24;;;;;;;114.97;49.97;;;1.40;99.90;;;;;;5060368;28;20891;-70
2023/03/03 05:28:51;;;;;;;108.37;45.60;;;1.30;99.90;;;;;;5058429;28;20458;-72
2023/03/03 05:31:18;;;;;;;109.63;47.47;;;1.40;99.90;;;;;;5056086;28;20494;-72
2023/03/03 05:33:45;;;;;;;112.53;47.63;;;1.40;99.90;;;;;;5057637;28;20468;-69
2023/03/03 05:36:13;;;;;;;110.73;50.97;;;1.30;99.90;;;;;;5052153;28;20455;-70
2023/03/03 05:38:40;;;;;;;126.93;51.23;;;1.30;99.90;;;;;;5056635;28;20512;-70
2023/03/03 05:41:06;;;;;;;117.70;47.67;;;1.30;99.90;;;;;;5053103;28;20490;-70
2023/03/03 05:43:33;;;;;;;115.60;48.23;;;1.30;99.90;;;;;;5057394;28;20493;-73
2023/03/03 05:46:00;;;;;;;117.37;50.10;;;1.30;99.90;;;;;;5056668;28;20456;-70
2023/03/03 05:48:28;;;;;;;104.83;45.47;;;1.40;99.90;;;;;;5055617;28;20589;-71
2023/03/03 05:50:57;;;;;;;114.73;49.80;;;1.40;99.90;;;;;;5055689;28;20679;-72
2023/03/03 05:53:26;;;;;;;122.13;50.97;;;1.10;99.90;;;;;;5057104;28;20460;-72
2023/03/03 05:55:53;;;;;;;118.07;50.37;;;1.10;99.90;;;;;;5054418;28;20949;-72
2023/03/03 05:58:20;;;;;;;126.63;51.97;;;1.20;99.90;;;;;;5055491;28;20554;-70
2023/03/03 06:00:47;;;;;;;117.43;49.63;;;1.30;99.90;;;;;;5060403;28;20454;-72
2023/03/03 06:03:15;;;;;;;114.07;49.43;;;1.40;99.90;;;;;;5061154;28;20498;-71
2023/03/03 06:05:42;;;;;;;131.93;51.77;;;1.50;99.90;;;;;;5056839;28;20466;-72
2023/03/03 06:08:09;;;;;;;117.03;48.70;;;1.50;99.90;;;;;;5059626;28;20455;-72
2023/03/03 06:10:38;;;;;;;113.73;50.17;;;1.40;99.90;;;;;;5057711;28;20582;-72
2023/03/03 06:13:05;;;;;;;118.70;50.37;;;1.60;99.90;;;;;;5059995;28;20494;-70
2023/03/03 06:15:32;;;;;;;113.87;49.90;;;1.50;99.90;;;;;;5060787;28;20583;-71
2023/03/03 06:17:58;;;;;;;99.47;42.63;;;1.50;99.90;;;;;;5061549;28;21169;-72
2023/03/03 06:20:25;;;;;;;99.03;46.37;;;1.50;99.90;;;;;;5055564;28;20496;-72
2023/03/03 06:22:52;;;;;;;104.27;45.57;;;1.50;99.90;;;;;;5052273;28;20877;-71
2023/03/03 06:25:19;;;;;;;102.50;44.90;;;1.60;99.90;;;;;;5050873;28;20866;-72
2023/03/03 06:27:47;;;;;;;116.70;49.40;;;1.70;99.90;;;;;;5050036;28;20979;-72
2023/03/03 06:30:14;;;;;;;123.27;47.30;;;1.60;99.90;;;;;;5059527;28;20456;-72
2023/03/03 06:32:41;;;;;;;115.47;49.60;;;1.60;99.90;;;;;;5060785;28;20467;-72
2023/03/03 06:35:08;;;;;;;100.63;46.47;;;1.40;99.90;;;;;;5057433;28;20463;-70
2023/03/03 06:37:35;;;;;;;108.83;47.10;;;1.40;99.90;;;;;;5057217;28;20546;-70
2023/03/03 06:40:02;;;;;;;109.63;46.13;;;1.40;99.90;;;;;;5059937;28;20467;-70
2023/03/03 06:42:28;;;;;;;102.00;48.63;;;1.40;99.90;;;;;;5055119;28;20579;-72
2023/03/03 06:44:57;;;;;;;114.63;50.23;;;1.40;99.90;;;;;;5054013;28;20778;-72
2023/03/03 06:47:24;;;;;;;115.53;51.80;;;1.20;99.90;;;;;;5059549;28;20504;-70
2023/03/03 06:49:51;;;;;;;97.70;47.73;;;1.40;99.90;;;;;;5058062;28;20482;-70
2023/03/03 06:52:22;;;;;;;112.27;48.67;;;1.40;99.90;;;;;;5049494;28;20819;-72
2023/03/03 06:54:50;;;;;;;103.20;49.37;;;1.50;99.90;;;;;;5047694;28;20487;-70
2023/03/03 06:57:22;;;;;;;116.33;49.90;;;1.50;99.90;;;;;;5056116;28;20471;-72
2023/03/03 06:59:52;;;;;;;100.03;44.43;;;1.50;99.90;;;;;;5054680;28;20577;-70
2023/03/03 07:02:22;;;;;;;100.47;45.67;;;1.50;99.90;;;;;;5055992;28;20471;-71
2023/03/03 07:04:49;;;;;;;101.97;43.60;;;1.20;99.90;;;;;;5052639;28;20462;-70
2023/03/03 07:07:19;;;;;;;110.90;47.30;;;1.20;99.90;;;;;;5050598;28;20491;-70
2023/03/03 07:09:48;;;;;;;94.87;42.83;;;1.30;99.90;;;;;;5050569;28;20998;-70
2023/03/03 07:12:18;;;;;;;98.70;47.77;;;1.30;99.90;;;;;;5054383;28;20499;-72
2023/03/03 07:14:49;;;;;;;102.17;46.33;;;1.40;99.90;;;;;;5054635;28;20553;-70
2023/03/03 07:17:18;;;;;;;113.20;49.03;;;1.60;99.90;;;;;;5063690;28;20455;-71
2023/03/03 07:19:47;;;;;;;101.43;44.97;;;1.50;99.90;;;;;;5054699;28;20467;-69
2023/03/03 07:22:16;;;;;;;103.33;46.87;;;1.50;99.90;;;;;;5054387;28;20462;-71
2023/03/03 07:24:45;;;;;;;110.10;50.00;;;1.30;99.90;;;;;;5054215;28;20945;-70
2023/03/03 07:27:16;;;;;;;108.93;44.97;;;1.40;99.90;;;;;;5048637;28;20459;-70
2023/03/03 07:29:46;;;;;;;95.77;42.37;;;1.60;99.90;;;;;;5044342;28;20472;-69
2023/03/03 07:32:28;;;;;;;110.30;46.57;;;1.70;99.90;;;;;;5056360;28;20455;-71
2023/03/03 07:34:57;;;;;;;92.70;47.37;;;1.90;99.90;;;;;;5051954;28;20460;-72
2023/03/03 07:37:30;;;;;;;112.13;48.67;;;2.00;99.90;;;;;;5056118;28;20459;-71
2023/03/03 07:39:58;;;;;;;102.57;48.97;;;2.00;99.90;;;;;;5043823;28;20476;-71
2023/03/03 07:42:27;;;;;;;118.93;50.00;;;2.00;99.90;;;;;;5053601;28;20491;-72
2023/03/03 07:44:56;;;;;;;105.13;49.23;;;2.10;99.90;;;;;;5044520;28;20819;-70
2023/03/03 07:47:24;;;;;;;109.10;46.93;;;2.00;99.90;;;;;;5050350;28;20460;-71
2023/03/03 07:49:53;;;;;;;108.50;45.57;;;2.00;99.90;;;;;;5055887;28;21003;-71
2023/03/03 07:52:39;;;;;;;102.90;46.60;;;2.10;99.90;;;;;;5049394;28;20507;-71
2023/03/03 07:55:26;;;;;;;103.93;44.73;;;2.10;99.90;;;;;;5049669;28;21043;-71
2023/03/03 07:57:56;;;;;;;91.83;45.30;;;2.10;99.90;;;;;;5049156;28;20463;-71
2023/03/03 08:01:11;;;;;;;98.10;47.83;;;2.20;99.90;;;;;;5057346;28;20459;-71
2023/03/03 08:03:38;;;;;;;103.83;49.27;;;2.10;99.90;;;;;;5052067;28;20837;-70
2023/03/03 08:06:28;;;;;;;89.07;43.17;;;2.30;99.90;;;;;;5044971;28;20460;-71
2023/03/03 08:09:01;;;;;;;88.43;42.40;;;2.20;99.90;;;;;;5053763;28;20468;-70
2023/03/03 08:11:28;;;;;;;97.07;46.57;;;2.00;99.90;;;;;;5056849;28;20564;-71
2023/03/03 08:13:56;;;;;;;89.87;43.40;;;2.20;99.90;;;;;;5054186;28;20474;-71
2023/03/03 08:16:30;;;;;;;86.00;43.47;;;2.30;99.90;;;;;;5049500;28;20483;-72
2023/03/03 08:18:59;;;;;;;81.20;41.07;;;2.40;99.90;;;;;;5050903;28;20449;-70
2023/03/03 08:21:27;;;;;;;82.13;43.83;;;2.30;99.90;;;;;;5055403;28;20454;-71
2023/03/03 08:23:55;;;;;;;78.60;44.90;;;2.50;99.90;;;;;;5050936;28;21032;-72
2023/03/03 08:26:24;;;;;;;91.43;43.70;;;2.50;99.90;;;;;;5049450;28;20462;-70
2023/03/03 08:28:51;;;;;;;101.07;46.90;;;2.40;99.90;;;;;;5057385;28;20838;-72
2023/03/03 08:31:18;;;;;;;99.23;49.67;;;2.50;99.90;;;;;;5059021;28;20470;-72
2023/03/03 08:33:45;;;;;;;104.40;50.73;;;2.60;99.90;;;;;;5057676;28;20471;-72
2023/03/03 08:36:12;;;;;;;98.93;49.00;;;2.60;99.90;;;;;;5050896;28;20478;-71
2023/03/03 08:38:40;;;;;;;98.27;42.10;;;2.80;99.90;;;;;;5059125;28;20459;-72
2023/03/03 08:41:08;;;;;;;102.97;47.57;;;2.90;99.90;;;;;;5052209;28;20487;-72
2023/03/03 08:43:35;;;;;;;100.07;51.43;;;2.90;99.90;;;;;;5044667;28;20867;-72
2023/03/03 08:46:05;;;;;;;124.17;53.67;;;2.70;99.90;;;;;;5055479;28;20517;-73
2023/03/03 08:48:33;;;;;;;115.83;52.33;;;2.80;99.90;;;;;;5054706;28;21161;-71
2023/03/03 08:51:00;;;;;;;106.73;49.60;;;2.90;99.90;;;;;;5052997;28;20847;-73
2023/03/03 08:53:27;;;;;;;94.80;47.47;;;2.90;99.90;;;;;;5049597;28;20541;-72
2023/03/03 08:55:54;;;;;;;110.90;51.03;;;2.80;99.90;;;;;;5054527;28;20906;-71
2023/03/03 08:58:23;;;;;;;114.30;52.83;;;2.60;99.90;;;;;;5050550;28;20464;-73
2023/03/03 09:00:50;;;;;;;108.80;53.87;;;2.70;99.90;;;;;;5054665;28;20467;-73
2023/03/03 09:03:17;;;;;;;117.87;57.20;;;3.00;99.90;;;;;;5053859;28;20489;-72
2023/03/03 09:05:44;;;;;;;105.13;53.27;;;3.00;99.90;;;;;;5051986;28;20524;-73
2023/03/03 09:08:12;;;;;;;119.67;55.10;;;2.90;99.90;;;;;;5048223;28;20881;-72
2023/03/03 09:10:38;;;;;;;112.50;53.90;;;3.10;99.90;;;;;;5051637;28;20467;-72
2023/03/03 09:13:12;;;;;;;105.33;54.07;;;3.10;99.90;;;;;;5051676;28;20976;-73
2023/03/03 09:15:41;;;;;;;128.23;57.53;;;3.30;99.90;;;;;;5046742;28;20478;-71
2023/03/03 09:18:15;;;;;;;99.13;48.20;;;3.50;99.90;;;;;;5049088;28;20852;-73
2023/03/03 09:20:44;;;;;;;102.47;54.50;;;3.60;99.90;;;;;;5047540;28;20486;-73
2023/03/03 09:23:33;;;;;;;120.57;56.20;;;3.70;99.90;;;;;;5055081;28;20480;-72
2023/03/03 09:26:28;;;;;;;77.73;41.90;;;3.90;99.90;;;;;;5055421;28;20472;-73
2023/03/03 09:28:58;;;;;;;108.30;56.50;;;3.80;99.90;;;;;;5048455;28;20467;-73
2023/03/03 09:31:31;;;;;;;104.27;55.00;;;3.70;99.90;;;;;;5048837;28;20510;-72
2023/03/03 09:33:58;;;;;;;115.53;54.60;;;3.60;99.90;;;;;;5056772;28;20640;-73
2023/03/03 09:36:27;;;;;;;97.27;49.77;;;3.60;99.90;;;;;;5054984;28;20876;-71
2023/03/03 09:38:56;;;;;;;113.03;57.47;;;3.50;99.90;;;;;;5055318;28;20463;-73
2023/03/03 09:41:53;;;;;;;107.90;53.07;;;3.40;99.90;;;;;;5055750;28;20537;-72
2023/03/03 09:44:38;;;;;;;117.70;55.90;;;3.40;99.90;;;;;;5049755;28;20487;-72
2023/03/03 09:47:24;;;;;;;120.43;56.53;;;3.40;99.90;;;;;;5048481;28;20474;-72
2023/03/03 09:50:01;;;;;;;112.47;58.50;;;3.30;99.90;;;;;;5064504;28;20479;-73
2023/03/03 09:52:38;;;;;;;129.47;63.53;;;3.40;99.90;;;;;;5058154;28;20474;-71
2023/03/03 09:55:29;;;;;;;125.67;62.83;;;3.50;99.90;;;;;;5053482;28;20463;-72
2023/03/03 09:58:15;;;;;;;115.67;57.87;;;3.80;99.90;;;;;;5047980;28;20467;-72
2023/03/03 10:00:54;;;;;;;89.43;43.17;;;3.70;99.90;;;;;;5048334;28;20884;-70
2023/03/03 10:03:50;;;;;;;116.87;56.77;;;3.70;99.90;;;;;;5047175;28;21042;-70
2023/03/03 10:06:25;;;;;;;115.30;59.47;;;3.70;99.90;;;;;;5052396;28;20814;-72
2023/03/03 10:09:23;;;;;;;115.40;56.30;;;3.70;99.90;;;;;;5058854;28;20524;-73
2023/03/03 10:11:56;;;;;;;108.70;55.10;;;3.60;99.90;;;;;;5041787;28;20516;-72
2023/03/03 10:14:43;;;;;;;120.80;60.97;;;3.60;99.90;;;;;;5058688;28;20471;-72
2023/03/03 10:17:32;;;;;;;126.70;59.77;;;3.60;99.90;;;;;;5055045;28;20477;-71
2023/03/03 10:20:12;;;;;;;118.20;58.83;;;3.60;99.90;;;;;;5058817;28;20504;-70
2023/03/03 10:22:50;;;;;;;107.07;58.37;;;3.80;99.90;;;;;;5058164;28;20486;-70
2023/03/03 10:25:26;;;;;;;116.13;57.27;;;4.00;99.90;;;;;;5052093;28;20502;-70
2023/03/03 10:28:18;;;;;;;109.50;56.80;;;4.10;99.90;;;;;;5055326;28;20482;-72
2023/03/03 10:30:54;;;;;;;111.67;60.10;;;4.20;99.90;;;;;;5044441;28;20831;-70
2023/03/03 10:33:31;;;;;;;118.97;59.73;;;4.00;99.90;;;;;;5053159;28;20876;-72
2023/03/03 10:36:16;;;;;;;121.33;62.40;;;4.30;99.90;;;;;;5049854;28;20544;-72
2023/03/03 10:38:55;;;;;;;109.03;59.23;;;4.50;99.90;;;;;;5062962;28;20871;-72
2023/03/03 10:41:37;;;;;;;113.13;60.10;;;4.20;99.90;;;;;;5053120;28;20580;-71
2023/03/03 10:44:24;;;;;;;111.30;53.93;;;4.40;99.90;;;;;;5051007;28;20486;-73
2023/03/03 10:47:17;;;;;;;125.47;59.80;;;4.40;99.90;;;;;;5047301;28;20561;-72
2023/03/03 10:49:55;;;;;;;125.77;59.37;;;4.50;99.90;;;;;;5050630;28;20474;-72
2023/03/03 10:52:44;;;;;;;111.70;55.87;;;4.40;99.90;;;;;;5052689;28;20468;-72
2023/03/03 10:55:31;;;;;;;116.23;59.07;;;4.30;99.90;;;;;;5047943;28;20514;-72
2023/03/03 10:58:25;;;;;;;115.10;59.10;;;4.40;99.90;;;;;;5055386;28;20468;-72
2023/03/03 11:01:01;;;;;;;137.63;64.77;;;4.50;99.90;;;;;;5050672;28;20469;-72
2023/03/03 11:03:46;;;;;;;121.00;59.57;;;4.80;99.90;;;;;;5045615;28;20483;-72
2023/03/03 11:06:18;;;;;;;124.70;60.87;;;5.20;99.90;;;;;;5058760;28;20468;-70
2023/03/03 11:08:53;;;;;;;134.10;62.67;;;5.20;99.90;;;;;;5046532;28;20476;-71
2023/03/03 11:11:33;;;;;;;121.07;62.60;;;5.00;99.90;;;;;;5049902;28;20906;-70
2023/03/03 11:14:09;;;;;;;121.27;62.53;;;5.10;99.90;;;;;;5049833;28;20486;-73
2023/03/03 11:16:46;;;;;;;117.20;58.90;;;5.10;99.90;;;;;;5054391;28;20487;-71
2023/03/03 11:19:37;;;;;;;136.03;63.10;;;4.90;99.90;;;;;;5046288;28;20457;-70
2023/03/03 11:22:23;;;;;;;131.10;65.47;;;5.00;99.90;;;;;;5045106;28;20478;-71
2023/03/03 11:24:59;;;;;;;107.00;57.03;;;5.30;99.90;;;;;;5046038;28;20489;-72
2023/03/03 11:27:56;;;;;;;124.03;58.20;;;5.40;99.90;;;;;;5042297;28;20455;-71
2023/03/03 11:30:41;;;;;;;108.13;53.13;;;5.20;99.90;;;;;;5050468;28;20464;-72
2023/03/03 11:33:12;;;;;;;123.80;57.80;;;4.70;99.90;;;;;;5051368;28;20993;-71
2023/03/03 11:35:46;;;;;;;95.27;49.37;;;4.70;99.90;;;;;;5046072;28;20952;-72
2023/03/03 11:38:38;;;;;;;105.60;54.87;;;4.60;99.90;;;;;;5054684;28;20528;-71
2023/03/03 11:41:15;;;;;;;81.43;47.40;;;4.80;99.90;;;;;;5048396;28;20495;-72
2023/03/03 11:43:46;;;;;;;114.53;60.10;;;4.70;99.90;;;;;;5058673;28;20496;-71
2023/03/03 11:46:16;;;;;;;111.63;54.40;;;4.70;99.90;;;;;;5055209;28;20459;-71
2023/03/03 11:48:50;;;;;;;123.87;58.50;;;4.60;99.90;;;;;;5050438;28;20455;-69
2023/03/03 11:51:23;;;;;;;103.50;56.80;;;4.40;99.90;;;;;;5059686;28;20472;-72
2023/03/03 11:54:03;;;;;;;112.63;55.53;;;4.50;99.90;;;;;;5061757;28;20461;-71
2023/03/03 11:56:39;;;;;;;119.23;58.40;;;4.50;99.90;;;;;;5058108;28;20487;-71
2023/03/03 11:59:19;;;;;;;105.90;57.07;;;4.80;99.90;;;;;;5052707;28;20487;-73
2023/03/03 12:01:52;;;;;;;109.97;57.20;;;4.90;99.90;;;;;;5051796;28;21043;-72
2023/03/03 12:04:22;;;;;;;113.63;56.87;;;5.20;99.90;;;;;;5057524;28;20486;-71
2023/03/03 12:07:05;;;;;;;124.37;58.07;;;5.10;99.90;;;;;;5050538;28;20482;-73
2023/03/03 12:09:43;;;;;;;113.03;59.93;;;5.20;99.90;;;;;;5053615;28;20497;-72
2023/03/03 12:12:15;;;;;;;109.10;57.63;;;5.40;99.90;;;;;;5063052;28;20457;-74
2023/03/03 12:15:03;;;;;;;108.37;57.87;;;5.40;99.90;;;;;;5048787;28;20455;-71
2023/03/03 12:17:50;;;;;;;125.57;62.93;;;5.20;99.90;;;;;;5053230;28;20833;-70
2023/03/03 12:20:24;;;;;;;114.13;58.57;;;5.30;99.90;;;;;;5053132;28;20877;-71
2023/03/03 12:23:03;;;;;;;110.17;59.30;;;5.40;99.90;;;;;;5056964;28;20455;-71
2023/03/03 12:25:37;;;;;;;119.00;60.03;;;5.50;99.90;;;;;;5054356;28;21082;-73
2023/03/03 12:28:10;;;;;;;107.20;59.00;;;5.60;99.90;;;;;;5056758;28;20557;-73
2023/03/03 12:30:59;;;;;;;128.37;63.33;;;5.90;99.90;;;;;;5061229;28;20471;-72
2023/03/03 12:33:37;;;;;;;113.27;56.20;;;6.10;99.90;;;;;;5053782;28;20463;-70
2023/03/03 12:36:16;;;;;;;120.63;55.13;;;6.20;99.90;;;;;;5063803;28;20550;-71
2023/03/03 12:38:50;;;;;;;109.33;55.90;;;6.20;99.90;;;;;;5062232;28;21250;-71
2023/03/03 12:41:25;;;;;;;101.43;55.70;;;6.00;99.90;;;;;;5062665;28;20482;-73
2023/03/03 12:44:02;;;;;;;104.30;53.93;;;6.10;99.90;;;;;;5059241;28;20971;-71
2023/03/03 12:46:39;;;;;;;109.47;58.47;;;5.90;99.90;;;;;;5055970;28;20458;-73
2023/03/03 12:49:06;;;;;;;123.93;64.83;;;5.90;99.90;;;;;;5058785;28;20544;-72
2023/03/03 12:51:42;;;;;;;120.90;63.73;;;6.20;99.90;;;;;;5057921;28;20462;-73